createdAt,value
2023-05-22T00:01:04.938Z,55.50
2023-05-22T00:03:36.575Z,54.96
2023-05-22T00:06:06.263Z,54.85
2023-05-22T00:08:34.435Z,54.88
2023-05-22T00:11:03.686Z,54.73
2023-05-22T00:13:32.031Z,54.94
2023-05-22T00:16:00.071Z,54.67
2023-05-22T00:18:28.249Z,55.00
2023-05-22T00:20:58.225Z,55.25
2023-05-22T00:23:27.975Z,54.56
2023-05-22T00:25:56.044Z,54.04
2023-05-22T00:28:24.078Z,54.23
2023-05-22T00:30:53.621Z,53.90
2023-05-22T00:33:21.658Z,53.96
2023-05-22T00:35:49.798Z,54.37
2023-05-22T00:38:34.398Z,54.38
2023-05-22T00:41:03.775Z,54.26
2023-05-22T00:43:32.058Z,54.36
2023-05-22T00:46:00.190Z,54.37
2023-05-22T00:48:28.297Z,54.02
2023-05-22T00:50:58.295Z,53.88
2023-05-22T00:53:28.238Z,55.02
2023-05-22T00:55:59.839Z,55.67
2023-05-22T00:58:28.564Z,55.56
2023-05-22T01:00:57.530Z,56.07
2023-05-22T01:03:27.534Z,56.70
2023-05-22T01:05:56.503Z,56.47
2023-05-22T01:08:24.765Z,56.25
2023-05-22T01:11:03.213Z,55.95
2023-05-22T01:13:41.229Z,56.22
2023-05-22T01:16:14.451Z,55.93
2023-05-22T01:18:47.996Z,56.03
2023-05-22T01:21:23.161Z,55.83
2023-05-22T01:24:16.298Z,56.18
2023-05-22T01:27:07.819Z,56.09
2023-05-22T01:29:46.322Z,56.20
2023-05-22T01:32:21.930Z,55.86
2023-05-22T01:34:55.668Z,56.26
2023-05-22T01:37:25.508Z,56.50
2023-05-22T01:39:54.564Z,56.29
2023-05-22T01:42:23.115Z,57.62
2023-05-22T01:44:51.687Z,58.37
2023-05-22T01:47:22.293Z,58.19
2023-05-22T01:49:52.032Z,58.47
2023-05-22T01:52:26.740Z,58.67
2023-05-22T01:55:00.252Z,59.42
2023-05-22T01:57:35.177Z,58.91
2023-05-22T02:00:10.038Z,58.94
2023-05-22T02:02:51.983Z,58.89
2023-05-22T02:05:23.749Z,58.81
2023-05-22T02:07:54.033Z,59.05
2023-05-22T02:10:23.264Z,59.33
2023-05-22T02:12:51.344Z,59.16
2023-05-22T02:15:19.944Z,59.20
2023-05-22T02:17:53.341Z,59.29
2023-05-22T02:20:21.834Z,59.41
2023-05-22T02:22:50.031Z,59.25
2023-05-22T02:25:18.321Z,59.23
2023-05-22T02:27:49.661Z,59.75
2023-05-22T02:30:17.794Z,59.86
2023-05-22T02:32:51.079Z,59.57
2023-05-22T02:35:19.152Z,59.91
2023-05-22T02:37:47.206Z,59.57
2023-05-22T02:40:15.802Z,59.33
2023-05-22T02:42:43.920Z,58.73
2023-05-22T02:45:12.983Z,58.68
2023-05-22T02:47:42.551Z,58.79
2023-05-22T02:50:13.133Z,58.85
2023-05-22T02:52:41.453Z,59.08
2023-05-22T02:55:10.639Z,59.25
2023-05-22T02:57:38.734Z,58.79
2023-05-22T03:00:10.730Z,59.53
2023-05-22T03:02:39.036Z,59.46
2023-05-22T03:05:08.184Z,58.92
2023-05-22T03:07:37.762Z,59.31
2023-05-22T03:10:06.991Z,59.57
2023-05-22T03:12:35.164Z,59.43
2023-05-22T03:15:03.329Z,59.10
2023-05-22T03:17:32.400Z,59.28
2023-05-22T03:20:00.524Z,59.16
2023-05-22T03:22:28.676Z,59.19
2023-05-22T03:24:58.173Z,59.75
2023-05-22T03:27:26.339Z,59.45
2023-05-22T03:29:54.540Z,59.75
2023-05-22T03:32:23.961Z,59.31
2023-05-22T03:34:52.332Z,59.76
2023-05-22T03:37:20.703Z,59.59
2023-05-22T03:39:48.883Z,59.44
2023-05-22T03:42:28.947Z,58.97
2023-05-22T03:44:58.287Z,59.05
2023-05-22T03:47:27.202Z,59.14
2023-05-22T03:49:55.306Z,58.96
2023-05-22T03:52:24.037Z,59.70
2023-05-22T03:54:53.575Z,59.15
2023-05-22T03:57:21.776Z,58.59
2023-05-22T03:59:51.389Z,58.22
2023-05-22T04:02:20.391Z,58.67
2023-05-22T04:04:48.577Z,59.38
2023-05-22T04:07:18.554Z,59.01
2023-05-22T04:09:46.736Z,58.71
2023-05-22T04:12:14.786Z,58.48
2023-05-22T04:14:43.999Z,58.41
2023-05-22T04:17:13.453Z,58.30
2023-05-22T04:19:41.510Z,58.19
2023-05-22T04:22:09.513Z,58.09
2023-05-22T04:24:39.886Z,58.37
2023-05-22T04:27:08.048Z,58.32
2023-05-22T04:29:36.439Z,58.21
2023-05-22T04:32:06.393Z,58.21
2023-05-22T04:34:37.614Z,58.17
2023-05-22T04:37:06.378Z,58.40
2023-05-22T04:39:34.574Z,57.89
2023-05-22T04:42:05.990Z,57.57
2023-05-22T04:44:42.968Z,57.98
2023-05-22T04:47:14.653Z,57.92
2023-05-22T04:49:45.712Z,57.60
2023-05-22T04:52:14.159Z,57.97
2023-05-22T04:54:44.492Z,58.30
2023-05-22T04:57:13.687Z,58.84
2023-05-22T04:59:42.185Z,59.06
2023-05-22T05:02:10.586Z,60.19
2023-05-22T05:04:39.082Z,60.52
2023-05-22T05:07:09.085Z,60.81
2023-05-22T05:09:37.314Z,59.61
2023-05-22T05:12:05.936Z,59.70
2023-05-22T05:14:34.063Z,59.11
2023-05-22T05:17:02.596Z,59.36
2023-05-22T05:19:30.916Z,58.77
2023-05-22T05:21:59.952Z,57.59
2023-05-22T05:24:29.812Z,56.76
2023-05-22T05:26:58.012Z,57.11
2023-05-22T05:29:26.544Z,57.84
2023-05-22T05:32:00.186Z,57.40
2023-05-22T05:34:41.027Z,57.25
2023-05-22T05:37:21.446Z,56.27
2023-05-22T05:39:51.861Z,56.58
2023-05-22T05:42:21.022Z,56.46
2023-05-22T05:44:50.153Z,55.90
2023-05-22T05:47:18.806Z,54.90
2023-05-22T05:49:46.890Z,55.42
2023-05-22T05:52:16.617Z,55.21
2023-05-22T05:54:47.535Z,54.58
2023-05-22T05:57:22.002Z,53.94
2023-05-22T05:59:51.947Z,54.18
2023-05-22T06:02:39.316Z,54.50
2023-05-22T06:05:13.681Z,53.96
2023-05-22T06:07:42.346Z,54.20
2023-05-22T06:10:13.085Z,54.12
2023-05-22T06:12:52.562Z,53.68
2023-05-22T06:15:21.293Z,53.48
2023-05-22T06:17:49.375Z,52.49
2023-05-22T06:20:17.624Z,52.99
2023-05-22T06:22:45.768Z,52.56
2023-05-22T06:25:13.929Z,52.01
2023-05-22T06:27:42.690Z,52.36
2023-05-22T06:30:14.814Z,52.28
2023-05-22T06:32:43.945Z,52.25
2023-05-22T06:35:12.502Z,52.30
2023-05-22T06:37:43.183Z,52.82
2023-05-22T06:40:12.410Z,52.54
2023-05-22T06:42:50.792Z,52.36
2023-05-22T06:45:29.128Z,51.74
2023-05-22T06:48:17.514Z,51.18
2023-05-22T06:51:11.708Z,51.22
2023-05-22T06:53:41.973Z,50.97
2023-05-22T06:56:15.425Z,50.80
2023-05-22T06:59:06.737Z,50.93
2023-05-22T07:01:51.547Z,51.59
2023-05-22T07:04:38.894Z,49.60
2023-05-22T07:07:14.426Z,50.51
2023-05-22T07:09:42.533Z,50.78
2023-05-22T07:12:11.224Z,50.75
2023-05-22T07:14:39.435Z,51.81
2023-05-22T07:17:09.025Z,50.60
2023-05-22T07:19:42.470Z,49.53
2023-05-22T07:22:10.722Z,48.94
2023-05-22T07:24:40.790Z,49.12
2023-05-22T07:27:09.379Z,49.54
2023-05-22T07:29:38.081Z,48.97
2023-05-22T07:32:09.401Z,48.16
2023-05-22T07:34:37.978Z,49.46
2023-05-22T07:37:09.844Z,49.43
2023-05-22T07:39:38.194Z,48.08
2023-05-22T07:42:07.837Z,48.76
2023-05-22T07:44:42.245Z,48.69
2023-05-22T07:47:11.839Z,48.85
2023-05-22T07:49:42.343Z,48.32
2023-05-22T07:52:12.871Z,48.79
2023-05-22T07:54:42.419Z,48.82
2023-05-22T07:57:12.727Z,47.81
2023-05-22T07:59:44.142Z,48.63
2023-05-22T08:02:14.442Z,48.99
2023-05-22T08:04:42.727Z,47.14
2023-05-22T08:07:11.528Z,47.25
2023-05-22T08:09:40.071Z,47.35
2023-05-22T08:12:09.253Z,47.52
2023-05-22T08:14:37.854Z,48.44
2023-05-22T08:17:06.447Z,47.04
2023-05-22T08:19:36.346Z,46.98
2023-05-22T08:22:04.590Z,46.62
2023-05-22T08:24:32.615Z,47.35
2023-05-22T08:27:00.766Z,48.47
2023-05-22T08:29:30.017Z,47.74
2023-05-22T08:31:58.435Z,47.95
2023-05-22T08:34:27.047Z,48.72
2023-05-22T08:36:56.487Z,48.37
2023-05-22T08:39:24.566Z,47.26
2023-05-22T08:41:53.027Z,47.70
2023-05-22T08:44:21.128Z,46.42
2023-05-22T08:46:49.645Z,46.51
2023-05-22T08:49:19.127Z,46.10
2023-05-22T08:51:49.613Z,46.54
2023-05-22T08:54:22.725Z,46.86
2023-05-22T08:56:56.679Z,46.22
2023-05-22T08:59:25.949Z,45.74
2023-05-22T09:01:54.933Z,44.77
2023-05-22T09:04:24.328Z,43.84
2023-05-22T09:06:53.160Z,42.50
2023-05-22T09:09:22.671Z,43.43
2023-05-22T09:11:50.996Z,42.78
2023-05-22T09:14:20.000Z,42.44
2023-05-22T09:16:49.570Z,41.44
2023-05-22T09:19:17.824Z,42.59
2023-05-22T09:21:46.282Z,43.30
2023-05-22T09:24:14.615Z,43.14
2023-05-22T09:26:43.995Z,42.14
2023-05-22T09:29:12.283Z,42.60
2023-05-22T09:31:44.031Z,42.59
2023-05-22T09:34:15.791Z,42.23
2023-05-22T09:36:44.314Z,42.35
2023-05-22T09:39:12.545Z,44.11
2023-05-22T09:41:41.399Z,41.70
2023-05-22T09:44:17.327Z,41.79
2023-05-22T09:46:47.560Z,42.53
2023-05-22T09:49:17.231Z,40.99
2023-05-22T09:51:48.878Z,41.33
2023-05-22T09:54:18.004Z,41.08
2023-05-22T09:56:50.278Z,42.72
2023-05-22T09:59:23.690Z,41.52
2023-05-22T10:01:52.279Z,42.07
2023-05-22T10:04:23.651Z,41.50
2023-05-22T10:06:54.013Z,41.79
2023-05-22T10:09:25.898Z,42.94
2023-05-22T10:11:56.278Z,42.95
2023-05-22T10:14:28.822Z,42.27
2023-05-22T10:17:02.176Z,42.18
2023-05-22T10:19:32.907Z,41.22
2023-05-22T10:22:02.558Z,41.09
2023-05-22T10:24:30.980Z,42.25
2023-05-22T10:26:59.252Z,41.89
2023-05-22T10:29:35.359Z,41.83
2023-05-22T10:32:09.279Z,40.95
2023-05-22T10:34:55.592Z,41.53
2023-05-22T10:37:39.752Z,40.48
2023-05-22T10:40:12.055Z,40.65
2023-05-22T10:42:40.773Z,39.56
2023-05-22T10:45:12.327Z,39.77
2023-05-22T10:47:40.630Z,39.17
2023-05-22T10:50:11.031Z,38.11
2023-05-22T10:52:39.861Z,39.79
2023-05-22T10:55:09.260Z,39.75
2023-05-22T10:57:39.934Z,39.94
2023-05-22T11:00:14.180Z,39.65
2023-05-22T11:02:47.116Z,40.21
2023-05-22T11:05:36.499Z,39.37
2023-05-22T11:08:38.760Z,39.02
2023-05-22T11:11:15.684Z,40.21
2023-05-22T11:13:43.840Z,39.74
2023-05-22T11:16:13.785Z,39.22
2023-05-22T11:18:41.997Z,38.91
2023-05-22T11:21:13.779Z,40.17
2023-05-22T11:23:42.803Z,39.73
2023-05-22T11:26:22.556Z,39.57
2023-05-22T11:28:52.009Z,39.46
2023-05-22T11:31:23.313Z,38.24
2023-05-22T11:33:51.609Z,36.19
2023-05-22T11:36:20.112Z,36.09
2023-05-22T11:38:48.263Z,35.62
2023-05-22T11:41:17.238Z,35.74
2023-05-22T11:43:45.393Z,36.64
2023-05-22T11:46:14.305Z,35.17
2023-05-22T11:48:44.322Z,33.74
2023-05-22T11:51:12.934Z,32.74
2023-05-22T11:53:42.646Z,32.85
2023-05-22T11:56:10.692Z,30.89
2023-05-22T11:58:38.806Z,31.27
2023-05-22T12:01:07.724Z,31.70
2023-05-22T12:03:35.884Z,30.97
2023-05-22T12:06:06.722Z,30.97
2023-05-22T12:08:35.491Z,30.94
2023-05-22T12:11:06.154Z,31.41
2023-05-22T12:13:34.311Z,32.42
2023-05-22T12:16:02.440Z,30.12
2023-05-22T12:18:37.918Z,29.31
2023-05-22T12:21:09.059Z,29.26
2023-05-22T12:23:37.203Z,29.47
2023-05-22T12:26:10.456Z,29.99
2023-05-22T12:28:40.077Z,29.08
2023-05-22T12:31:08.128Z,29.49
2023-05-22T12:33:36.317Z,30.32
2023-05-22T12:36:10.346Z,30.92
2023-05-22T12:38:39.956Z,29.49
2023-05-22T12:41:08.410Z,29.25
2023-05-22T12:43:36.713Z,29.12
2023-05-22T12:46:05.002Z,29.32
2023-05-22T12:48:33.015Z,29.27
2023-05-22T12:51:01.098Z,30.25
2023-05-22T12:53:30.605Z,30.41
2023-05-22T12:55:58.627Z,29.56
2023-05-22T12:58:26.699Z,30.45
2023-05-22T13:00:55.022Z,30.37
2023-05-22T13:03:23.432Z,29.51
2023-05-22T13:05:51.489Z,30.12
2023-05-22T13:08:19.486Z,29.94
2023-05-22T13:10:48.948Z,29.93
2023-05-22T13:13:17.051Z,29.42
2023-05-22T13:15:45.161Z,30.19
2023-05-22T13:18:13.220Z,30.48
2023-05-22T13:20:41.366Z,30.13
2023-05-22T13:23:09.827Z,30.37
2023-05-22T13:25:38.021Z,29.56
2023-05-22T13:28:07.527Z,29.71
2023-05-22T13:30:35.635Z,29.94
2023-05-22T13:33:03.896Z,29.87
2023-05-22T13:35:32.150Z,29.18
2023-05-22T13:38:00.269Z,29.70
2023-05-22T13:40:28.440Z,30.67
2023-05-22T13:42:56.564Z,30.14
2023-05-22T13:45:27.305Z,29.98
2023-05-22T13:47:55.401Z,29.41
2023-05-22T13:50:23.618Z,29.57
2023-05-22T13:52:51.743Z,30.62
2023-05-22T13:55:19.869Z,30.53
2023-05-22T13:57:48.043Z,30.27
2023-05-22T14:00:16.813Z,30.41
2023-05-22T14:02:49.715Z,29.61
2023-05-22T14:05:18.119Z,29.96
2023-05-22T14:07:46.302Z,30.66
2023-05-22T14:10:14.535Z,31.40
2023-05-22T14:12:42.700Z,31.94
2023-05-22T14:15:11.665Z,31.03
2023-05-22T14:17:39.890Z,31.68
2023-05-22T14:20:10.415Z,32.00
2023-05-22T14:22:55.482Z,32.32
2023-05-22T14:25:25.459Z,31.63
2023-05-22T14:27:53.725Z,32.74
2023-05-22T14:30:21.893Z,32.71
2023-05-22T14:32:50.199Z,33.44
2023-05-22T14:35:19.698Z,33.09
2023-05-22T14:37:47.882Z,33.50
2023-05-22T14:40:15.908Z,34.66
2023-05-22T14:42:44.379Z,34.65
2023-05-22T14:45:13.004Z,34.48
2023-05-22T14:47:42.488Z,34.17
2023-05-22T14:50:19.004Z,33.89
2023-05-22T14:52:49.955Z,33.85
2023-05-22T14:55:18.803Z,35.06
2023-05-22T14:57:46.885Z,34.90
2023-05-22T15:00:16.237Z,34.81
2023-05-22T15:02:44.389Z,34.19
2023-05-22T15:05:12.634Z,34.40
2023-05-22T15:07:44.633Z,34.66
2023-05-22T15:10:15.235Z,34.28
2023-05-22T15:12:43.382Z,34.87
2023-05-22T15:15:12.420Z,34.72
2023-05-22T15:17:42.616Z,34.08
2023-05-22T15:20:12.102Z,33.25
2023-05-22T15:22:40.369Z,33.80
2023-05-22T15:25:11.880Z,34.10
2023-05-22T15:27:42.235Z,33.86
2023-05-22T15:30:12.187Z,33.24
2023-05-22T15:32:40.660Z,33.03
2023-05-22T15:35:10.265Z,33.08
2023-05-22T15:37:38.496Z,32.68
2023-05-22T15:40:09.759Z,32.26
2023-05-22T15:42:38.234Z,32.37
2023-05-22T15:45:09.331Z,32.83
2023-05-22T15:47:37.541Z,33.25
2023-05-22T15:50:06.489Z,33.27
2023-05-22T15:52:34.536Z,32.69
2023-05-22T15:55:02.857Z,32.67
2023-05-22T15:57:31.349Z,33.31
2023-05-22T15:59:59.479Z,33.22
2023-05-22T16:02:28.977Z,33.06
2023-05-22T16:04:57.286Z,33.78
2023-05-22T16:07:25.379Z,33.87
2023-05-22T16:09:53.660Z,33.81
2023-05-22T16:12:23.153Z,33.25
2023-05-22T16:14:51.879Z,33.81
2023-05-22T16:17:21.820Z,34.28
2023-05-22T16:19:52.291Z,34.36
2023-05-22T16:22:21.373Z,34.67
2023-05-22T16:24:49.457Z,34.80
2023-05-22T16:27:17.573Z,35.04
2023-05-22T16:29:45.736Z,35.31
2023-05-22T16:32:13.838Z,35.62
2023-05-22T16:34:41.847Z,35.82
2023-05-22T16:37:11.372Z,36.06
2023-05-22T16:39:39.960Z,36.04
2023-05-22T16:42:08.212Z,36.64
2023-05-22T16:44:36.268Z,36.64
2023-05-22T16:47:04.553Z,37.29
2023-05-22T16:49:32.662Z,37.44
2023-05-22T16:52:00.725Z,37.74
2023-05-22T16:54:30.170Z,38.30
2023-05-22T16:56:58.191Z,38.64
2023-05-22T16:59:26.273Z,39.45
2023-05-22T17:01:54.509Z,39.37
2023-05-22T17:04:22.553Z,39.86
2023-05-22T17:06:53.783Z,40.12
2023-05-22T17:09:21.871Z,40.79
2023-05-22T17:11:51.457Z,40.44
2023-05-22T17:14:21.754Z,40.32
2023-05-22T17:16:50.117Z,40.61
2023-05-22T17:19:18.567Z,40.61
2023-05-22T17:21:46.858Z,41.06
2023-05-22T17:24:15.098Z,41.53
2023-05-22T17:26:43.377Z,41.43
2023-05-22T17:29:12.836Z,42.23
2023-05-22T17:31:40.914Z,41.79
2023-05-22T17:34:09.088Z,41.66
2023-05-22T17:36:37.089Z,42.17
2023-05-22T17:39:05.387Z,42.18
2023-05-22T17:41:33.506Z,42.66
2023-05-22T17:44:01.986Z,42.83
2023-05-22T17:46:31.455Z,42.61
2023-05-22T17:48:59.676Z,42.95
2023-05-22T17:51:27.790Z,43.40
2023-05-22T17:53:56.508Z,43.31
2023-05-22T17:56:24.543Z,43.53
2023-05-22T17:58:52.632Z,44.11
2023-05-22T18:01:20.942Z,44.79
2023-05-22T18:03:50.569Z,44.60
2023-05-22T18:06:18.771Z,44.88
2023-05-22T18:08:47.784Z,44.80
2023-05-22T18:11:16.207Z,45.32
2023-05-22T18:13:44.338Z,45.24
2023-05-22T18:16:12.522Z,45.94
2023-05-22T18:18:43.717Z,45.96
2023-05-22T18:21:13.193Z,45.87
2023-05-22T18:23:41.270Z,46.42
2023-05-22T18:26:09.789Z,46.97
2023-05-22T18:28:37.856Z,46.61
2023-05-22T18:31:05.947Z,47.40
2023-05-22T18:33:46.645Z,47.70
2023-05-22T18:36:17.320Z,47.75
2023-05-22T18:38:45.418Z,47.90
2023-05-22T18:41:13.444Z,48.78
2023-05-22T18:43:41.518Z,48.79
2023-05-22T18:46:09.668Z,48.93
2023-05-22T18:48:37.830Z,49.18
2023-05-22T18:51:05.974Z,49.05
2023-05-22T18:53:35.462Z,49.52
2023-05-22T18:56:03.788Z,49.71
2023-05-22T18:58:31.985Z,49.63
2023-05-22T19:01:01.484Z,49.90
2023-05-22T19:03:29.630Z,50.02
2023-05-22T19:05:58.115Z,50.20
2023-05-22T19:08:26.831Z,50.15
2023-05-22T19:10:59.918Z,50.36
2023-05-22T19:13:29.304Z,50.54
2023-05-22T19:15:58.275Z,50.33
2023-05-22T19:18:27.495Z,50.50
2023-05-22T19:20:55.757Z,50.68
2023-05-22T19:23:23.774Z,50.30
2023-05-22T19:25:52.455Z,50.46
2023-05-22T19:28:22.025Z,50.73
2023-05-22T19:30:50.166Z,50.68
2023-05-22T19:33:18.906Z,50.75
2023-05-22T19:35:47.276Z,50.92
2023-05-22T19:38:15.636Z,51.18
2023-05-22T19:40:43.724Z,50.84
2023-05-22T19:43:12.012Z,51.14
2023-05-22T19:45:41.418Z,50.84
2023-05-22T19:48:09.603Z,50.89
2023-05-22T19:50:37.891Z,51.03
2023-05-22T19:53:06.316Z,51.42
2023-05-22T19:55:34.324Z,51.31
2023-05-22T19:58:02.409Z,51.25
2023-05-22T20:00:31.497Z,51.27
2023-05-22T20:03:01.157Z,51.23
2023-05-22T20:05:29.183Z,51.35
2023-05-22T20:07:59.109Z,51.80
2023-05-22T20:10:27.178Z,51.64
2023-05-22T20:12:56.089Z,51.91
2023-05-22T20:15:24.904Z,51.84
2023-05-22T20:17:54.484Z,52.00
2023-05-22T20:20:24.687Z,51.73
2023-05-22T20:22:53.982Z,51.91
2023-05-22T20:25:22.394Z,51.83
2023-05-22T20:27:50.745Z,52.00
2023-05-22T20:30:18.992Z,51.69
2023-05-22T20:32:47.138Z,52.14
2023-05-22T20:35:18.900Z,52.10
2023-05-22T20:37:48.607Z,52.12
2023-05-22T20:40:17.549Z,52.17
2023-05-22T20:42:47.593Z,52.95
2023-05-22T20:45:16.471Z,52.53
2023-05-22T20:47:44.991Z,52.96
2023-05-22T20:50:13.453Z,52.71
2023-05-22T20:52:41.529Z,52.86
2023-05-22T20:55:19.401Z,52.79
2023-05-22T20:57:49.579Z,53.11
2023-05-22T21:00:18.078Z,53.06
2023-05-22T21:02:46.463Z,53.21
2023-05-22T21:05:21.709Z,53.27
2023-05-22T21:07:49.893Z,53.56
2023-05-22T21:10:19.385Z,53.46
2023-05-22T21:12:47.463Z,53.50
2023-05-22T21:15:15.564Z,53.62
2023-05-22T21:17:43.807Z,54.10
2023-05-22T21:20:12.550Z,53.98
2023-05-22T21:22:40.563Z,54.02
2023-05-22T21:25:10.299Z,54.13
2023-05-22T21:27:39.727Z,54.55
2023-05-22T21:30:09.300Z,54.51
2023-05-22T21:32:38.129Z,54.54
2023-05-22T21:35:07.196Z,54.93
2023-05-22T21:37:35.302Z,55.11
2023-05-22T21:40:03.342Z,55.29
2023-05-22T21:42:41.864Z,55.73
2023-05-22T21:45:15.834Z,55.99
2023-05-22T21:47:44.019Z,55.86
2023-05-22T21:50:12.743Z,56.04
2023-05-22T21:52:40.866Z,56.21
2023-05-22T21:55:09.554Z,56.69
2023-05-22T21:57:37.826Z,56.26
2023-05-22T22:00:06.676Z,56.35
2023-05-22T22:02:36.364Z,56.88
2023-05-22T22:05:04.683Z,56.87
2023-05-22T22:07:32.759Z,56.97
2023-05-22T22:10:00.978Z,57.33
2023-05-22T22:12:29.005Z,57.39
2023-05-22T22:14:58.076Z,57.74
2023-05-22T22:17:26.293Z,57.79
2023-05-22T22:19:57.034Z,58.14
2023-05-22T22:22:26.194Z,57.76
2023-05-22T22:24:54.271Z,57.92
2023-05-22T22:27:22.446Z,57.82
2023-05-22T22:29:50.656Z,58.19
2023-05-22T22:32:18.826Z,58.11
2023-05-22T22:34:47.061Z,57.84
2023-05-22T22:37:17.591Z,57.79
2023-05-22T22:39:45.696Z,58.25
2023-05-22T22:42:13.714Z,58.21
2023-05-22T22:44:41.826Z,58.08
2023-05-22T22:47:09.896Z,58.22
2023-05-22T22:49:38.460Z,58.65
2023-05-22T22:52:07.660Z,58.78
2023-05-22T22:54:37.238Z,58.74
2023-05-22T22:57:05.726Z,58.89
2023-05-22T22:59:35.573Z,58.65
2023-05-22T23:02:03.675Z,58.46
2023-05-22T23:04:31.778Z,58.93
2023-05-22T23:06:59.848Z,59.13
2023-05-22T23:09:27.974Z,59.04
2023-05-22T23:11:57.389Z,58.87
2023-05-22T23:14:28.077Z,59.33
2023-05-22T23:16:56.180Z,59.09
2023-05-22T23:19:24.377Z,59.40
2023-05-22T23:21:53.691Z,59.54
2023-05-22T23:24:21.795Z,59.93
2023-05-22T23:26:49.764Z,59.80
2023-05-22T23:29:19.153Z,59.83
2023-05-22T23:31:47.587Z,60.04
2023-05-22T23:34:15.648Z,60.09
2023-05-22T23:36:43.707Z,59.98
2023-05-22T23:39:11.866Z,60.65
2023-05-22T23:41:39.938Z,60.62
2023-05-22T23:44:07.943Z,60.43
2023-05-22T23:46:39.722Z,60.36
2023-05-22T23:49:08.374Z,60.57
2023-05-22T23:51:36.675Z,60.64
2023-05-22T23:54:04.803Z,60.60
2023-05-22T23:56:32.870Z,60.50
2023-05-22T23:59:01.035Z,60.75
